Time;durP1;ratioP1;P1;durP2;ratioP2;P2;SDS_P1;SDS_P2;PMS_P1;PMS_P2;Temp;Humidity;BMP_temperature;BMP_pressure;BME280_temperature;BME280_humidity;BME280_pressure;Samples;Min_cycle;Max_cycle;Signal;HPM_P1;HPM_P2
2023/08/21 00:00:28;;;;;;;5.82;2.58;;;;;;;18.26;100.00;102376.25;5092088;28;20055;-64
2023/08/21 00:02:53;;;;;;;12.18;2.72;;;;;;;18.31;100.00;102371.59;5090378;28;20024;-67
2023/08/21 00:05:18;;;;;;;6.10;2.53;;;;;;;18.38;100.00;102377.53;5086986;28;20020;-65
2023/08/21 00:07:46;;;;;;;10.73;2.70;;;;;;;18.46;100.00;102366.53;5071533;28;20023;-63
2023/08/21 00:10:13;;;;;;;5.05;2.33;;;;;;;18.53;100.00;102370.66;5071209;28;20718;-63
2023/08/21 00:12:39;;;;;;;9.57;2.45;;;;;;;18.58;100.00;102379.34;5071637;28;20078;-63
2023/08/21 00:15:05;;;;;;;9.80;2.40;;;;;;;18.63;100.00;102371.16;5090844;28;20020;-64
2023/08/21 00:17:30;;;;;;;9.10;2.17;;;;;;;18.63;100.00;102363.97;5089985;28;20032;-64
2023/08/21 00:19:56;;;;;;;11.63;2.78;;;;;;;18.64;100.00;102371.09;5090033;28;20024;-57
2023/08/21 00:22:22;;;;;;;5.78;2.20;;;;;;;18.66;100.00;102381.69;5089942;28;20024;-63
2023/08/21 00:24:47;;;;;;;8.25;2.22;;;;;;;18.67;100.00;102381.59;5090737;28;20080;-62
2023/08/21 00:27:12;;;;;;;6.95;2.33;;;;;;;18.71;100.00;102379.66;5090045;28;20446;-63
2023/08/21 00:29:38;;;;;;;5.97;2.00;;;;;;;18.76;100.00;102376.81;5086450;28;20038;-63
2023/08/21 00:32:03;;;;;;;4.63;2.30;;;;;;;18.78;100.00;102375.78;5068909;28;20364;-63
2023/08/21 00:34:29;;;;;;;7.38;2.00;;;;;;;18.75;100.00;102370.59;5069560;28;20506;-63
2023/08/21 00:36:54;;;;;;;6.82;2.08;;;;;;;18.67;100.00;102368.25;5068775;28;20031;-60
2023/08/21 00:39:20;;;;;;;5.60;2.05;;;;;;;18.59;100.00;102370.41;5087138;28;20491;-62
2023/08/21 00:41:45;;;;;;;4.80;2.30;;;;;;;18.56;100.00;102360.72;5090332;28;20028;-62
2023/08/21 00:44:10;;;;;;;7.38;2.40;;;;;;;18.55;100.00;102358.13;5090028;28;20480;-63
2023/08/21 00:46:36;;;;;;;8.05;2.20;;;;;;;18.50;100.00;102360.13;5089643;28;20493;-64
2023/08/21 00:49:02;;;;;;;8.02;1.90;;;;;;;18.41;100.00;102358.72;5089016;28;20008;-64
2023/08/21 00:51:28;;;;;;;6.60;2.20;;;;;;;18.37;100.00;102360.66;5088077;28;20073;-63
2023/08/21 00:53:53;;;;;;;9.75;2.40;;;;;;;18.31;100.00;102360.91;5121659;27;20048;-63
2023/08/21 00:56:18;;;;;;;9.23;2.33;;;;;;;18.29;100.00;102358.31;5090761;28;20020;-63
2023/08/21 00:58:44;;;;;;;5.32;1.90;;;;;;;18.30;100.00;102359.16;5090112;28;20099;-63
2023/08/21 01:01:09;;;;;;;4.65;2.10;;;;;;;18.31;100.00;102363.59;5089722;28;20137;-63
2023/08/21 01:03:35;;;;;;;8.27;1.90;;;;;;;18.31;100.00;102360.91;5089898;28;20024;-64
2023/08/21 01:06:00;;;;;;;6.15;2.22;;;;;;;18.28;100.00;102361.94;5080989;28;20032;-64
2023/08/21 01:08:43;;;;;;;7.72;1.95;;;;;;;18.28;100.00;102358.38;5070532;28;20052;-63
2023/08/21 01:11:15;;;;;;;8.10;1.98;;;;;;;18.22;100.00;102361.31;5069886;28;20028;-63
2023/08/21 01:14:01;;;;;;;7.28;2.58;;;;;;;18.15;100.00;102361.56;5068997;28;20029;-64
2023/08/21 01:16:28;;;;;;;5.82;2.15;;;;;;;18.09;100.00;102360.94;5101961;28;20491;-63
2023/08/21 01:18:54;;;;;;;11.05;2.40;;;;;;;18.05;100.00;102357.50;5117223;27;20492;-63
2023/08/21 01:21:19;;;;;;;6.70;2.33;;;;;;;18.01;100.00;102364.78;5090165;28;20038;-64
2023/08/21 01:23:45;;;;;;;6.88;2.35;;;;;;;17.99;100.00;102365.75;5088955;28;20028;-63
2023/08/21 01:26:10;;;;;;;5.28;2.35;;;;;;;17.99;100.00;102368.44;5090668;28;20024;-64
2023/08/21 01:28:35;;;;;;;12.30;3.35;;;;;;;17.94;100.00;102365.94;5089156;28;20059;-64
2023/08/21 01:31:17;;;;;;;7.22;2.75;;;;;;;17.97;100.00;102367.63;5072622;28;20082;-63
2023/08/21 01:33:49;;;;;;;9.82;2.53;;;;;;;18.03;100.00;102372.72;5069546;28;20052;-63
2023/08/21 01:36:14;;;;;;;6.95;2.45;;;;;;;18.05;100.00;102365.50;5068356;28;20029;-63
2023/08/21 01:38:40;;;;;;;6.93;2.80;;;;;;;18.03;100.00;102370.91;5102716;28;20024;-65
2023/08/21 01:41:05;;;;;;;7.35;2.33;;;;;;;18.03;100.00;102376.25;5069231;28;20465;-64
2023/08/21 01:43:31;;;;;;;6.40;2.60;;;;;;;18.01;100.00;102372.78;5087682;28;20069;-62
2023/08/21 01:45:56;;;;;;;8.38;2.25;;;;;;;18.00;100.00;102379.03;5090045;28;20058;-63
2023/08/21 01:48:22;;;;;;;3.60;2.28;;;;;;;17.99;100.00;102371.97;5082298;28;20046;-63
2023/08/21 01:50:47;;;;;;;7.90;2.42;;;;;;;18.00;100.00;102375.50;5068595;28;20063;-66
2023/08/21 01:53:12;;;;;;;5.55;2.17;;;;;;;17.98;100.00;102380.03;5068473;28;20029;-61
2023/08/21 01:55:38;;;;;;;5.88;2.10;;;;;;;17.94;100.00;102380.16;5068204;28;20406;-63
2023/08/21 01:58:03;;;;;;;11.18;2.63;;;;;;;17.96;100.00;102381.88;5069450;28;20012;-67
2023/08/21 02:00:28;;;;;;;5.50;1.90;;;;;;;17.97;100.00;102375.63;5067926;28;20055;-64
2023/08/21 02:02:54;;;;;;;7.72;2.60;;;;;;;17.94;100.00;102369.50;5070138;28;20028;-62
2023/08/21 02:05:19;;;;;;;7.97;2.67;;;;;;;17.96;100.00;102371.22;5066801;28;20063;-66
2023/08/21 02:07:45;;;;;;;4.45;2.30;;;;;;;17.90;100.00;102364.34;5070173;28;20017;-63
2023/08/21 02:10:11;;;;;;;8.27;2.65;;;;;;;17.87;100.00;102372.47;5068737;28;20036;-62
2023/08/21 02:12:36;;;;;;;6.50;2.58;;;;;;;17.82;100.00;102369.97;5068759;28;20532;-63
2023/08/21 02:15:01;;;;;;;8.40;2.90;;;;;;;17.76;100.00;102368.44;5084885;28;20016;-63
2023/08/21 02:17:27;;;;;;;11.23;3.15;;;;;;;17.73;100.00;102373.88;5088457;28;20020;-63
2023/08/21 02:19:52;;;;;;;13.02;3.63;;;;;;;17.68;100.00;102368.75;5081464;28;20028;-63
2023/08/21 02:22:17;;;;;;;6.57;2.78;;;;;;;17.65;100.00;102379.53;5089348;28;20113;-63
2023/08/21 02:24:43;;;;;;;7.75;2.80;;;;;;;17.63;100.00;102369.84;5086481;28;20019;-63
2023/08/21 02:27:08;;;;;;;7.22;3.00;;;;;;;17.59;100.00;102368.25;5074188;28;20039;-64
2023/08/21 02:29:34;;;;;;;7.53;3.10;;;;;;;17.55;100.00;102371.03;5067943;28;20025;-64
2023/08/21 02:31:59;;;;;;;8.82;2.85;;;;;;;17.53;100.00;102367.56;5073975;28;20470;-63
2023/08/21 02:34:24;;;;;;;8.77;2.80;;;;;;;17.51;100.00;102371.19;5068638;28;20024;-64
2023/08/21 02:36:50;;;;;;;7.28;2.80;;;;;;;17.49;100.00;102373.06;5067134;28;20036;-64
2023/08/21 02:39:15;;;;;;;11.18;3.30;;;;;;;17.46;100.00;102366.03;5069909;28;20021;-62
2023/08/21 02:41:40;;;;;;;8.75;2.85;;;;;;;17.44;100.00;102367.91;5068482;28;20051;-65
2023/08/21 02:44:06;;;;;;;9.38;3.38;;;;;;;17.41;100.00;102366.25;5068586;28;20031;-63
2023/08/21 02:46:33;;;;;;;8.10;3.50;;;;;;;17.40;100.00;102363.66;5069418;28;20024;-64
2023/08/21 02:48:58;;;;;;;9.10;3.30;;;;;;;17.37;100.00;102367.28;5068139;28;20129;-64
2023/08/21 02:51:24;;;;;;;14.48;3.78;;;;;;;17.34;100.00;102370.06;5068756;28;20439;-63
2023/08/21 02:53:49;;;;;;;8.32;3.45;;;;;;;17.36;100.00;102367.31;5068806;28;20031;-62
2023/08/21 02:56:14;;;;;;;11.00;3.65;;;;;;;17.37;100.00;102359.28;5068979;28;20059;-63
2023/08/21 02:58:40;;;;;;;7.93;3.25;;;;;;;17.36;100.00;102357.56;5071292;28;20029;-63
2023/08/21 03:01:05;;;;;;;6.22;3.25;;;;;;;17.33;100.00;102365.66;5067052;28;20048;-62
2023/08/21 03:03:32;;;;;;;8.75;3.17;;;;;;;17.31;100.00;102359.53;5069131;28;20455;-62
2023/08/21 03:05:57;;;;;;;9.05;3.63;;;;;;;17.28;100.00;102364.97;5067617;28;20364;-62
2023/08/21 03:08:23;;;;;;;8.02;2.70;;;;;;;17.27;100.00;102357.91;5067429;28;20031;-62
2023/08/21 03:10:48;;;;;;;9.38;2.92;;;;;;;17.25;100.00;102365.09;5069023;28;20021;-68
2023/08/21 03:13:13;;;;;;;9.45;2.85;;;;;;;17.25;100.00;102360.63;5067148;28;20471;-63
2023/08/21 03:15:39;;;;;;;5.53;2.40;;;;;;;17.26;100.00;102356.16;5069387;28;20104;-62
2023/08/21 03:18:04;;;;;;;6.40;2.80;;;;;;;17.22;100.00;102350.06;5067367;28;20422;-64
2023/08/21 03:20:30;;;;;;;8.07;3.08;;;;;;;17.22;100.00;102355.41;5065519;28;20030;-63
2023/08/21 03:22:55;;;;;;;4.82;2.72;;;;;;;17.22;100.00;102354.56;5073356;28;20031;-64
2023/08/21 03:25:20;;;;;;;8.77;3.10;;;;;;;17.20;100.00;102351.94;5072000;28;20044;-65
2023/08/21 03:27:49;;;;;;;10.63;3.22;;;;;;;17.20;100.00;102359.94;5073034;28;20021;-63
2023/08/21 03:30:14;;;;;;;10.38;3.38;;;;;;;17.11;100.00;102353.16;5072069;28;20021;-63
2023/08/21 03:32:40;;;;;;;14.35;3.95;;;;;;;17.07;100.00;102351.56;5070440;28;20027;-64
2023/08/21 03:35:05;;;;;;;5.25;2.85;;;;;;;17.04;100.00;102351.63;5072029;28;20032;-62
2023/08/21 03:37:31;;;;;;;6.35;3.00;;;;;;;17.00;100.00;102348.19;5071675;28;20066;-64
2023/08/21 03:39:56;;;;;;;11.38;3.75;;;;;;;17.00;100.00;102352.66;5071413;28;20044;-63
2023/08/21 03:42:22;;;;;;;9.50;3.03;;;;;;;16.98;100.00;102351.84;5090460;28;20053;-64
2023/08/21 03:44:50;;;;;;;8.30;3.28;;;;;;;16.96;100.00;102356.34;5073489;28;20029;-63
2023/08/21 03:47:18;;;;;;;8.23;3.30;;;;;;;16.94;100.00;102353.75;5070895;28;20536;-63
2023/08/21 03:49:43;;;;;;;8.05;3.45;;;;;;;16.91;100.00;102354.75;5071781;28;20025;-63
2023/08/21 03:52:09;;;;;;;5.97;2.78;;;;;;;16.91;100.00;102361.84;5069920;28;20406;-64
2023/08/21 03:54:34;;;;;;;9.23;3.00;;;;;;;16.87;100.00;102358.44;5070717;28;20032;-62
2023/08/21 03:56:59;;;;;;;5.95;3.22;;;;;;;16.88;100.00;102362.84;5087774;28;20024;-64
2023/08/21 03:59:27;;;;;;;6.97;3.15;;;;;;;16.84;100.00;102357.69;5091403;28;20703;-64
2023/08/21 04:01:53;;;;;;;11.15;3.42;;;;;;;16.82;100.00;102357.72;5088570;28;20111;-63
2023/08/21 04:04:18;;;;;;;7.95;3.50;;;;;;;16.83;100.00;102361.28;5070955;28;20103;-64
2023/08/21 04:06:43;;;;;;;9.55;3.40;;;;;;;16.82;100.00;102365.72;5069959;28;20417;-64
2023/08/21 04:09:10;;;;;;;8.20;3.30;;;;;;;16.81;100.00;102361.31;5086834;28;20446;-64
2023/08/21 04:11:36;;;;;;;6.78;3.05;;;;;;;16.84;100.00;102358.56;5073883;28;20398;-64
2023/08/21 04:14:01;;;;;;;8.75;3.30;;;;;;;16.86;100.00;102359.34;5070965;28;20024;-62
2023/08/21 04:16:27;;;;;;;9.75;3.85;;;;;;;16.89;100.00;102367.22;5076009;28;20382;-64
2023/08/21 04:18:53;;;;;;;8.85;3.50;;;;;;;16.92;100.00;102367.13;5071189;28;20040;-63
2023/08/21 04:21:18;;;;;;;10.35;3.90;;;;;;;16.92;100.00;102355.63;5068941;28;20056;-63
2023/08/21 04:23:45;;;;;;;11.85;4.38;;;;;;;16.89;100.00;102367.22;5073629;28;20021;-62
2023/08/21 04:26:10;;;;;;;11.02;3.92;;;;;;;16.87;100.00;102361.09;5068908;28;20107;-63
2023/08/21 04:28:37;;;;;;;5.85;3.58;;;;;;;16.89;100.00;102369.88;5074432;28;20633;-63
2023/08/21 04:31:05;;;;;;;8.55;3.58;;;;;;;16.86;100.00;102364.66;5091179;28;20020;-64
2023/08/21 04:33:32;;;;;;;12.07;4.47;;;;;;;16.80;100.00;102370.25;5087674;28;20304;-65
2023/08/21 04:35:57;;;;;;;6.82;3.15;;;;;;;16.81;100.00;102371.97;5075241;28;20028;-63
2023/08/21 04:38:23;;;;;;;6.93;3.65;;;;;;;16.82;100.00;102364.88;5077121;28;20294;-64
2023/08/21 04:40:48;;;;;;;7.55;3.83;;;;;;;16.77;100.00;102371.19;5081017;28;20028;-63
2023/08/21 04:43:13;;;;;;;11.50;3.88;;;;;;;16.77;100.00;102376.53;5080449;28;20035;-63
2023/08/21 04:45:47;;;;;;;8.95;3.72;;;;;;;16.79;100.00;102374.69;5088353;28;20024;-64
2023/08/21 04:48:12;;;;;;;11.55;4.25;;;;;;;16.78;100.00;102378.28;5075484;28;20029;-66
2023/08/21 04:50:37;;;;;;;14.10;3.95;;;;;;;16.82;100.00;102379.03;5069207;28;20021;-65
2023/08/21 04:53:03;;;;;;;8.75;4.38;;;;;;;16.85;100.00;102378.03;5070349;28;20025;-63
2023/08/21 04:55:28;;;;;;;12.35;4.25;;;;;;;16.88;100.00;102383.25;5070045;28;20525;-65
2023/08/21 04:57:53;;;;;;;7.03;3.90;;;;;;;16.89;100.00;102377.88;5068771;28;20013;-64
2023/08/21 05:00:19;;;;;;;10.32;4.22;;;;;;;16.90;100.00;102376.09;5070752;28;20097;-66
2023/08/21 05:02:44;;;;;;;10.00;4.18;;;;;;;16.93;100.00;102381.31;5069974;28;20051;-65
2023/08/21 05:05:10;;;;;;;11.95;3.92;;;;;;;16.95;100.00;102386.56;5067353;28;20021;-64
2023/08/21 05:07:35;;;;;;;7.68;3.67;;;;;;;16.95;100.00;102381.25;5072182;28;20048;-65
2023/08/21 05:10:01;;;;;;;6.43;4.13;;;;;;;16.99;100.00;102381.09;5068572;28;20528;-64
2023/08/21 05:12:26;;;;;;;9.70;4.20;;;;;;;17.03;100.00;102387.16;5070488;28;20458;-65
2023/08/21 05:14:52;;;;;;;12.52;3.80;;;;;;;17.08;100.00;102385.25;5069917;28;20050;-65
2023/08/21 05:17:17;;;;;;;6.82;3.55;;;;;;;17.18;100.00;102380.44;5068247;28;20183;-65
2023/08/21 05:19:42;;;;;;;10.57;3.67;;;;;;;17.25;100.00;102383.75;5069124;28;20112;-64
2023/08/21 05:22:08;;;;;;;9.85;3.35;;;;;;;17.27;100.00;102382.75;5068251;28;20036;-64
2023/08/21 05:24:33;;;;;;;11.95;3.60;;;;;;;17.32;100.00;102387.91;5071925;28;20020;-65
2023/08/21 05:26:59;;;;;;;11.18;3.30;;;;;;;17.41;100.00;102387.56;5089664;28;20028;-65
2023/08/21 05:29:24;;;;;;;9.15;3.58;;;;;;;17.49;100.00;102386.41;5086432;28;20100;-64
2023/08/21 05:31:50;;;;;;;6.57;3.33;;;;;;;17.52;100.00;102383.63;5084142;28;20024;-65
2023/08/21 05:34:15;;;;;;;9.98;3.42;;;;;;;17.58;100.00;102377.19;5087644;28;20534;-66
2023/08/21 05:36:40;;;;;;;8.98;3.47;;;;;;;17.60;100.00;102392.16;5081331;28;20023;-64
2023/08/21 05:39:08;;;;;;;10.13;3.47;;;;;;;17.69;100.00;102396.25;5074549;28;20428;-64
2023/08/21 05:41:33;;;;;;;13.60;3.88;;;;;;;17.72;100.00;102387.28;5085219;28;20032;-63
2023/08/21 05:43:58;;;;;;;11.57;3.80;;;;;;;17.77;100.00;102383.53;5083356;28;20516;-65
2023/08/21 05:46:24;;;;;;;10.63;3.65;;;;;;;17.83;100.00;102387.72;5087877;28;20126;-64
2023/08/21 05:48:49;;;;;;;13.63;3.55;;;;;;;17.89;100.00;102390.16;5084421;28;20043;-64
2023/08/21 05:51:14;;;;;;;17.10;3.15;;;;;;;17.97;100.00;102387.16;5068338;28;20048;-66
2023/08/21 05:53:40;;;;;;;8.35;3.72;;;;;;;18.02;100.00;102390.53;5067691;28;20482;-64
2023/08/21 05:56:05;;;;;;;13.52;3.80;;;;;;;18.11;100.00;102386.63;5069432;28;20020;-64
2023/08/21 05:58:32;;;;;;;13.02;4.05;;;;;;;18.21;100.00;102389.78;5068033;28;20418;-63
2023/08/21 06:00:58;;;;;;;7.68;3.15;;;;;;;18.36;100.00;102390.09;5070267;28;20040;-63
2023/08/21 06:03:24;;;;;;;10.43;4.05;;;;;;;18.53;100.00;102398.22;5086284;28;20073;-64
2023/08/21 06:05:49;;;;;;;10.40;4.22;;;;;;;18.68;100.00;102396.69;5086844;28;20028;-65
2023/08/21 06:08:14;;;;;;;10.05;3.75;;;;;;;18.81;100.00;102390.81;5069841;28;20054;-64
2023/08/21 06:10:40;;;;;;;8.63;3.10;;;;;;;18.92;100.00;102393.88;5066678;28;20062;-66
2023/08/21 06:13:05;;;;;;;8.18;3.70;;;;;;;19.01;100.00;102391.72;5083004;28;20040;-64
2023/08/21 06:15:30;;;;;;;10.43;3.60;;;;;;;19.11;100.00;102397.56;5088253;28;20069;-64
2023/08/21 06:17:58;;;;;;;8.88;3.20;;;;;;;19.24;100.00;102403.19;5076806;28;20028;-64
2023/08/21 06:20:23;;;;;;;8.95;3.78;;;;;;;19.35;100.00;102395.53;5065994;28;20107;-65
2023/08/21 06:22:49;;;;;;;8.55;3.33;;;;;;;19.47;100.00;102401.28;5066693;28;20411;-65
2023/08/21 06:25:14;;;;;;;11.40;3.60;;;;;;;19.59;100.00;102402.50;5072993;28;20116;-64
2023/08/21 06:27:39;;;;;;;10.95;3.67;;;;;;;19.67;100.00;102398.50;5084289;28;20024;-65
2023/08/21 06:30:05;;;;;;;7.93;3.35;;;;;;;19.79;100.00;102399.72;5084169;28;20066;-66
2023/08/21 06:32:31;;;;;;;9.88;3.70;;;;;;;19.82;100.00;102404.06;5084581;28;20016;-65
2023/08/21 06:34:56;;;;;;;9.52;3.60;;;;;;;19.89;100.00;102402.81;5087500;28;20153;-66
2023/08/21 06:37:21;;;;;;;8.85;3.25;;;;;;;20.00;100.00;102404.09;5071585;28;20029;-66
2023/08/21 06:39:47;;;;;;;7.60;3.53;;;;;;;20.11;100.00;102404.47;5066812;28;20032;-67
2023/08/21 06:42:12;;;;;;;14.15;3.40;;;;;;;20.18;100.00;102411.25;5083085;28;20047;-64
2023/08/21 06:44:38;;;;;;;10.63;3.78;;;;;;;20.30;100.00;102406.22;5068217;28;20033;-66
2023/08/21 06:47:03;;;;;;;17.67;4.38;;;;;;;20.32;100.00;102402.50;5067604;28;20055;-65
2023/08/21 06:49:28;;;;;;;16.88;4.43;;;;;;;20.41;100.00;102406.53;5068673;28;20035;-66
2023/08/21 06:51:54;;;;;;;13.65;3.83;;;;;;;20.50;100.00;102407.00;5067215;28;20105;-64
2023/08/21 06:54:19;;;;;;;13.98;3.72;;;;;;;20.57;100.00;102408.44;5067345;28;20459;-66
2023/08/21 06:56:44;;;;;;;13.40;4.20;;;;;;;20.58;100.00;102412.81;5069222;28;20115;-66
2023/08/21 06:59:10;;;;;;;12.30;3.55;;;;;;;20.69;100.00;102410.47;5067153;28;20067;-65
2023/08/21 07:01:35;;;;;;;19.55;4.45;;;;;;;20.81;100.00;102408.09;5068423;28;20024;-62
2023/08/21 07:04:00;;;;;;;12.00;3.78;;;;;;;20.76;100.00;102407.44;5067076;28;20031;-67
2023/08/21 07:06:30;;;;;;;16.10;4.82;;;;;;;20.83;100.00;102411.56;5070770;28;20457;-66
2023/08/21 07:08:55;;;;;;;14.38;4.30;;;;;;;20.92;100.00;102416.44;5071114;28;20024;-65
2023/08/21 07:11:21;;;;;;;10.07;3.75;;;;;;;21.01;100.00;102411.56;5065760;28;20033;-70
2023/08/21 07:13:46;;;;;;;15.73;4.05;;;;;;;21.05;100.00;102411.31;5066400;28;20073;-67
2023/08/21 07:16:11;;;;;;;13.30;3.72;;;;;;;21.07;100.00;102416.59;5071638;28;20531;-66
2023/08/21 07:18:38;;;;;;;11.50;3.30;;;;;;;21.16;100.00;102416.06;5065803;28;20548;-66
2023/08/21 07:21:04;;;;;;;10.25;3.50;;;;;;;21.21;100.00;102416.69;5078828;28;20024;-66
2023/08/21 07:23:30;;;;;;;15.68;4.20;;;;;;;21.33;100.00;102414.28;5084289;28;20078;-65
2023/08/21 07:25:56;;;;;;;12.25;3.78;;;;;;;21.39;100.00;102422.00;5085782;28;20510;-66
2023/08/21 07:28:22;;;;;;;15.38;3.70;;;;;;;21.51;100.00;102415.09;5078579;28;20074;-65
2023/08/21 07:30:47;;;;;;;15.68;4.18;;;;;;;21.52;100.00;102418.66;5073247;28;20019;-65
2023/08/21 07:33:12;;;;;;;15.43;4.35;;;;;;;21.54;100.00;102422.09;5084977;28;20059;-65
2023/08/21 07:35:38;;;;;;;12.65;3.83;;;;;;;21.66;100.00;102428.59;5077385;28;20017;-66
2023/08/21 07:38:03;;;;;;;9.23;3.58;;;;;;;21.73;100.00;102421.06;5085013;28;20020;-64
2023/08/21 07:40:29;;;;;;;19.48;3.63;;;;;;;21.79;100.00;102426.13;5084639;28;20024;-64
2023/08/21 07:42:55;;;;;;;13.23;3.70;;;;;;;21.81;100.00;102429.56;5076967;28;20031;-66
2023/08/21 07:45:20;;;;;;;10.77;3.22;;;;;;;21.91;100.00;102430.78;5066225;28;20020;-63
2023/08/21 07:47:46;;;;;;;11.48;3.42;;;;;;;21.98;100.00;102431.31;5082281;28;20024;-67
2023/08/21 07:50:11;;;;;;;13.88;3.53;;;;;;;22.05;100.00;102426.44;5079047;28;20028;-66
2023/08/21 07:52:37;;;;;;;14.30;2.80;;;;;;;22.11;100.00;102425.22;5085431;28;20024;-69
2023/08/21 07:55:02;;;;;;;14.55;2.92;;;;;;;22.19;100.00;102437.22;5085899;28;20020;-69
2023/08/21 07:57:29;;;;;;;9.25;2.97;;;;;;;22.24;100.00;102426.22;5069922;28;20030;-69
2023/08/21 07:59:54;;;;;;;9.50;2.83;;;;;;;22.30;100.00;102438.41;5083138;28;20090;-68
2023/08/21 08:02:20;;;;;;;17.67;2.97;;;;;;;22.28;100.00;102443.03;5087136;28;20051;-68
2023/08/21 08:04:46;;;;;;;12.50;3.55;;;;;;;22.36;100.00;102439.91;5085017;28;20499;-69
2023/08/21 08:07:11;;;;;;;14.50;3.95;;;;;;;22.37;100.00;102442.50;5084464;28;20077;-66
2023/08/21 08:09:37;;;;;;;13.60;3.58;;;;;;;22.41;100.00;102435.09;5087105;28;20028;-70
2023/08/21 08:12:02;;;;;;;14.65;2.85;;;;;;;22.52;100.00;102442.53;5088859;28;20028;-69
2023/08/21 08:14:28;;;;;;;12.32;2.92;;;;;;;22.61;100.00;102438.44;5088497;28;20389;-70
2023/08/21 08:16:53;;;;;;;11.32;3.00;;;;;;;22.64;100.00;102428.41;5076433;28;20024;-71
2023/08/21 08:19:18;;;;;;;11.27;3.08;;;;;;;22.68;100.00;102435.31;5068751;28;20032;-59
2023/08/21 08:21:44;;;;;;;8.30;2.33;;;;;;;22.75;100.00;102437.63;5067763;28;20031;-63
2023/08/21 08:24:09;;;;;;;12.05;2.55;;;;;;;22.72;100.00;102435.97;5073124;28;20021;-64
2023/08/21 08:26:35;;;;;;;11.90;2.60;;;;;;;22.82;100.00;102436.28;5083918;28;20031;-63
2023/08/21 08:29:00;;;;;;;17.90;2.75;;;;;;;22.89;100.00;102442.13;5088400;28;20118;-62
2023/08/21 08:31:27;;;;;;;7.72;2.80;;;;;;;22.93;100.00;102446.38;5072835;28;20150;-63
2023/08/21 08:33:53;;;;;;;8.95;2.35;;;;;;;22.92;100.00;102442.84;5084619;28;20099;-62
2023/08/21 08:36:18;;;;;;;15.07;2.67;;;;;;;23.02;100.00;102437.75;5087976;28;20095;-63
2023/08/21 08:38:44;;;;;;;8.55;2.17;;;;;;;23.12;100.00;102432.66;5075874;28;20423;-62
2023/08/21 08:41:33;;;;;;;17.88;2.67;;;;;;;23.16;100.00;102438.69;5083841;28;20028;-61
2023/08/21 08:43:59;;;;;;;10.43;2.80;;;;;;;23.23;100.00;102438.22;5081736;28;20025;-62
2023/08/21 08:46:25;;;;;;;14.23;2.83;;;;;;;23.25;100.00;102435.44;5090833;28;20030;-61
2023/08/21 08:48:52;;;;;;;6.60;1.92;;;;;;;23.26;100.00;102434.47;5085161;28;20476;-59
2023/08/21 08:51:17;;;;;;;10.55;2.45;;;;;;;23.33;100.00;102430.44;5100817;28;20065;-65
2023/08/21 08:53:42;;;;;;;10.23;2.70;;;;;;;23.45;100.00;102434.19;5091363;28;20024;-62
2023/08/21 08:56:08;;;;;;;9.07;2.60;;;;;;;23.44;100.00;102437.84;5085952;28;20046;-64
2023/08/21 08:58:34;;;;;;;9.48;2.45;;;;;;;23.50;100.00;102435.75;5077147;28;20073;-63
2023/08/21 09:00:59;;;;;;;8.27;2.63;;;;;;;23.55;100.00;102439.00;5068187;28;20178;-61
2023/08/21 09:03:24;;;;;;;8.15;3.08;;;;;;;23.61;100.00;102433.22;5068354;28;20513;-63
2023/08/21 09:05:50;;;;;;;14.35;2.80;;;;;;;23.70;100.00;102438.00;5086324;28;20052;-63
2023/08/21 09:08:15;;;;;;;10.25;2.53;;;;;;;23.77;100.00;102434.91;5086542;28;20331;-63
2023/08/21 09:10:42;;;;;;;14.57;2.72;;;;;;;23.80;100.00;102437.38;5082514;28;20050;-63
2023/08/21 09:13:12;;;;;;;9.52;2.03;;;;;;;23.80;100.00;102442.78;5090900;28;20474;-63
2023/08/21 09:15:38;;;;;;;5.85;2.10;;;;;;;23.83;100.00;102437.19;5093643;28;20048;-64
2023/08/21 09:18:04;;;;;;;9.88;2.20;;;;;;;23.87;100.00;102436.03;5091582;28;20033;-60
2023/08/21 09:20:35;;;;;;;8.20;2.22;;;;;;;23.97;100.00;102438.97;5073170;28;20032;-63
2023/08/21 09:23:01;;;;;;;8.85;2.28;;;;;;;24.09;100.00;102426.53;5083610;28;20437;-60
2023/08/21 09:25:26;;;;;;;8.82;1.88;;;;;;;24.15;100.00;102436.94;5081074;28;20095;-61
2023/08/21 09:27:55;;;;;;;8.60;2.08;;;;;;;24.19;100.00;102427.69;5072190;28;20024;-64
2023/08/21 09:30:20;;;;;;;;;;;;;;;24.28;100.00;102430.69;5094509;28;20012;-59
2023/08/21 09:32:57;;;;;;;11.70;2.15;;;;;;;24.30;100.00;102424.25;5086787;28;19931;-59
2023/08/21 09:35:23;;;;;;;9.60;1.85;;;;;;;24.57;99.34;102430.56;5069238;28;20360;-60
2023/08/21 09:37:49;;;;;;;5.63;1.60;;;;;;;24.76;94.62;102426.56;5083305;28;20020;-62
2023/08/21 09:40:17;;;;;;;4.68;1.58;;;;;;;24.90;94.65;102421.13;5075445;28;20039;-60
2023/08/21 09:42:42;;;;;;;5.70;1.88;;;;;;;25.18;95.40;102429.94;5073619;28;20020;-62
2023/08/21 09:45:08;;;;;;;9.52;2.03;;;;;;;25.28;93.23;102423.88;5081868;28;20368;-62
2023/08/21 09:47:34;;;;;;;8.00;2.33;;;;;;;25.32;94.45;102418.16;5087002;28;20390;-62
2023/08/21 09:49:59;;;;;;;8.68;2.03;;;;;;;25.41;94.73;102413.06;5097257;28;20039;-65
2023/08/21 09:52:26;;;;;;;6.30;1.75;;;;;;;25.48;91.26;102412.50;5079161;28;20111;-63
2023/08/21 09:54:53;;;;;;;5.88;2.05;;;;;;;25.66;91.12;102414.84;5068100;28;20048;-63
2023/08/21 09:57:20;;;;;;;8.63;2.15;;;;;;;25.83;90.98;102413.56;5110594;27;20481;-62
2023/08/21 09:59:45;;;;;;;7.32;1.77;;;;;;;25.80;85.63;102419.22;5070372;28;20068;-61
2023/08/21 10:02:11;;;;;;;10.07;2.13;;;;;;;25.85;84.48;102424.25;5067874;28;20545;-64
2023/08/21 10:04:38;;;;;;;7.03;1.88;;;;;;;25.89;86.75;102416.81;5071573;28;20077;-58
2023/08/21 10:07:05;;;;;;;7.32;1.63;;;;;;;26.09;80.00;102412.56;5115338;27;20028;-60
2023/08/21 10:09:31;;;;;;;5.50;1.50;;;;;;;25.95;78.15;102408.25;5076494;28;20020;-65
2023/08/21 10:11:57;;;;;;;3.92;1.10;;;;;;;26.28;74.39;102412.06;5068062;28;20025;-63
2023/08/21 10:14:24;;;;;;;3.53;1.23;;;;;;;26.48;75.16;102415.94;5064374;28;20126;-57
2023/08/21 10:16:51;;;;;;;5.03;1.83;;;;;;;26.65;74.52;102415.59;5072887;28;20025;-64
2023/08/21 10:19:17;;;;;;;4.93;1.42;;;;;;;26.74;75.29;102415.75;5065149;28;20027;-63
2023/08/21 10:21:46;;;;;;;8.23;1.70;;;;;;;26.69;78.15;102415.25;5070430;28;20020;-63
2023/08/21 10:24:11;;;;;;;5.85;1.67;;;;;;;26.56;74.31;102428.00;5086824;28;20470;-64
2023/08/21 10:26:40;;;;;;;2.90;1.05;;;;;;;26.47;73.63;102424.16;5084862;28;20039;-61
2023/08/21 10:29:08;;;;;;;3.85;1.20;;;;;;;26.46;75.06;102417.88;5071471;28;20519;-63
2023/08/21 10:31:42;;;;;;;7.32;1.67;;;;;;;26.20;77.65;102415.34;5062737;28;20021;-62
2023/08/21 10:34:12;;;;;;;9.38;1.65;;;;;;;26.36;76.94;102420.47;5065105;28;20024;-61
2023/08/21 10:36:44;;;;;;;7.78;1.50;;;;;;;26.46;76.71;102409.78;5064292;28;20059;-56
2023/08/21 10:39:20;;;;;;;5.05;1.80;;;;;;;26.51;74.57;102406.72;5064028;28;20032;-60
2023/08/21 10:42:00;;;;;;;4.95;1.70;;;;;;;26.62;74.54;102409.47;5065117;28;20426;-59
2023/08/21 10:44:41;;;;;;;3.38;1.27;;;;;;;26.71;72.54;102415.13;5065373;28;20052;-62
2023/08/21 10:47:17;;;;;;;5.18;1.42;;;;;;;26.86;71.39;102405.81;5099412;28;20025;-64
2023/08/21 10:50:03;;;;;;;5.85;1.25;;;;;;;26.90;71.87;102414.53;5064717;28;20486;-64
2023/08/21 10:52:35;;;;;;;3.63;1.40;;;;;;;26.93;72.57;102419.69;5064543;28;20171;-62
2023/08/21 10:55:03;;;;;;;3.92;1.40;;;;;;;26.95;73.91;102412.31;5067662;28;20436;-61
2023/08/21 10:57:30;;;;;;;4.10;1.63;;;;;;;26.97;74.19;102407.63;5065387;28;20021;-62
2023/08/21 11:00:12;;;;;;;7.80;2.03;;;;;;;26.83;73.51;102405.19;5064803;28;20366;-63
2023/08/21 11:02:39;;;;;;;5.45;1.40;;;;;;;26.79;74.29;102414.53;5066379;28;20037;-62
2023/08/21 11:05:06;;;;;;;7.32;1.88;;;;;;;26.91;74.06;102401.88;5066971;28;20013;-64
2023/08/21 11:07:51;;;;;;;4.50;1.58;;;;;;;26.97;73.30;102401.38;5064959;28;20439;-62
2023/08/21 11:10:30;;;;;;;5.97;1.40;;;;;;;26.78;73.31;102407.41;5063937;28;20074;-61
2023/08/21 11:12:56;;;;;;;5.80;1.60;;;;;;;26.84;71.82;102404.19;5079837;28;20024;-64